createdAt,value
2022-11-06T00:02:55.821Z,95227
2022-11-06T00:06:21.053Z,95223
2022-11-06T00:09:46.306Z,95231
2022-11-06T00:13:11.580Z,95232
2022-11-06T00:16:36.791Z,95232
2022-11-06T00:20:02.031Z,95225
2022-11-06T00:23:27.292Z,95228
2022-11-06T00:26:54.477Z,95223
2022-11-06T00:30:17.804Z,95231
2022-11-06T00:33:43.003Z,95235
2022-11-06T00:37:08.278Z,95240
2022-11-06T00:40:33.474Z,95242
2022-11-06T00:43:58.736Z,95244
2022-11-06T00:47:24.011Z,95239
2022-11-06T00:50:49.210Z,95242
2022-11-06T00:54:14.469Z,95238
2022-11-06T00:57:39.696Z,95229
2022-11-06T01:01:04.954Z,95240
2022-11-06T01:04:30.193Z,95239
2022-11-06T01:07:55.427Z,95241
2022-11-06T01:11:20.682Z,95232
2022-11-06T01:14:45.921Z,95234
2022-11-06T01:18:11.501Z,95233
2022-11-06T01:21:36.443Z,95234
2022-11-06T01:25:01.680Z,95238
2022-11-06T01:28:26.908Z,95230
2022-11-06T01:31:52.121Z,95226
2022-11-06T01:35:17.374Z,95224
2022-11-06T01:38:42.647Z,95220
2022-11-06T01:42:07.878Z,95223
2022-11-06T01:45:33.121Z,95229
2022-11-06T01:48:58.361Z,95232
2022-11-06T01:52:23.590Z,95219
2022-11-06T01:55:48.875Z,95214
2022-11-06T01:59:14.085Z,95212
2022-11-06T02:02:39.443Z,95208
2022-11-06T02:06:04.583Z,95206
2022-11-06T02:09:29.829Z,95206
2022-11-06T02:12:55.096Z,95198
2022-11-06T02:16:20.316Z,95195
2022-11-06T02:19:45.562Z,95189
2022-11-06T02:23:10.832Z,95184
2022-11-06T02:26:36.084Z,95180
2022-11-06T02:30:01.355Z,95178
2022-11-06T02:33:26.573Z,95183
2022-11-06T02:36:51.817Z,95181
2022-11-06T02:40:17.046Z,95171
2022-11-06T02:43:42.277Z,95174
2022-11-06T02:47:07.539Z,95173
2022-11-06T02:50:32.746Z,95172
2022-11-06T02:53:57.972Z,95167
2022-11-06T02:57:23.223Z,95166
2022-11-06T03:00:48.463Z,95168
2022-11-06T03:04:13.781Z,95162
2022-11-06T03:07:38.907Z,95168
2022-11-06T03:11:04.138Z,95165
2022-11-06T03:14:29.345Z,95170
2022-11-06T03:17:54.591Z,95169
2022-11-06T03:21:19.846Z,95166
2022-11-06T03:24:45.043Z,95166
2022-11-06T03:28:10.564Z,95171
2022-11-06T03:31:35.546Z,95172
2022-11-06T03:35:00.818Z,95170
2022-11-06T03:38:26.096Z,95169
2022-11-06T03:41:51.293Z,95163
2022-11-06T03:45:16.513Z,95163
2022-11-06T03:48:41.749Z,95167
2022-11-06T03:52:06.969Z,95161
2022-11-06T03:55:32.302Z,95152
2022-11-06T03:58:57.465Z,95155
2022-11-06T04:02:22.858Z,95147
2022-11-06T04:05:47.914Z,95143
2022-11-06T04:09:13.140Z,95143
2022-11-06T04:12:38.397Z,95139
2022-11-06T04:16:03.621Z,95136
2022-11-06T04:19:28.857Z,95138
2022-11-06T04:22:54.075Z,95131
2022-11-06T04:26:19.307Z,95136
2022-11-06T04:29:44.568Z,95143
2022-11-06T04:33:09.777Z,95136
2022-11-06T04:36:35.022Z,95133
2022-11-06T04:40:00.250Z,95128
2022-11-06T04:43:25.478Z,95131
2022-11-06T04:46:50.721Z,95129
2022-11-06T04:50:15.947Z,95129
2022-11-06T04:53:41.185Z,95133
2022-11-06T04:57:06.411Z,95139
2022-11-06T05:00:31.687Z,95137
2022-11-06T05:03:56.913Z,95138
2022-11-06T05:07:22.128Z,95136
2022-11-06T05:10:47.354Z,95126
2022-11-06T05:14:12.590Z,95125
2022-11-06T05:17:37.800Z,95131
2022-11-06T05:21:03.077Z,95136
2022-11-06T05:24:28.305Z,95131
2022-11-06T05:27:53.532Z,95123
2022-11-06T05:31:18.766Z,95119
2022-11-06T05:34:44.026Z,95114
2022-11-06T05:38:09.272Z,95113
2022-11-06T05:41:34.481Z,95108
2022-11-06T05:44:59.721Z,95109
2022-11-06T05:48:24.967Z,95105
2022-11-06T05:51:50.205Z,95104
2022-11-06T05:55:15.661Z,95101
2022-11-06T05:58:40.637Z,95092
2022-11-06T06:02:06.023Z,95090
2022-11-06T06:05:31.190Z,95100
2022-11-06T06:08:56.418Z,95096
2022-11-06T06:12:21.723Z,95091
2022-11-06T06:15:46.998Z,95094
2022-11-06T06:19:12.321Z,95097
2022-11-06T06:22:37.598Z,95096
2022-11-06T06:26:03.101Z,95101
2022-11-06T06:29:28.544Z,95108
2022-11-06T06:32:53.880Z,95100
2022-11-06T06:36:19.549Z,95103
2022-11-06T06:39:44.944Z,95107
2022-11-06T06:43:10.218Z,95110
2022-11-06T06:46:39.978Z,95108
2022-11-06T06:50:07.337Z,95100
2022-11-06T06:53:40.345Z,95099
2022-11-06T06:57:10.457Z,95102
2022-11-06T07:00:35.803Z,95108
2022-11-06T07:04:04.104Z,95099
2022-11-06T07:07:26.578Z,95102
2022-11-06T07:10:52.303Z,95103
2022-11-06T07:14:24.353Z,95114
2022-11-06T07:17:54.486Z,95118
2022-11-06T07:21:26.910Z,95110
2022-11-06T07:24:58.323Z,95118
2022-11-06T07:28:30.432Z,95117
2022-11-06T07:32:00.055Z,95120
2022-11-06T07:35:52.258Z,95127
2022-11-06T07:39:34.958Z,95119
2022-11-06T07:43:10.765Z,95108
2022-11-06T07:46:37.318Z,95105
2022-11-06T07:50:02.627Z,95104
2022-11-06T07:53:27.954Z,95102
2022-11-06T07:56:53.265Z,95106
2022-11-06T08:00:18.493Z,95109
2022-11-06T08:03:43.746Z,95111
2022-11-06T08:07:08.978Z,95096
2022-11-06T08:10:34.466Z,95085
2022-11-06T08:14:01.165Z,95085
2022-11-06T08:17:26.571Z,95088
2022-11-06T08:20:51.905Z,95089
2022-11-06T08:24:21.662Z,95086
2022-11-06T08:27:42.582Z,95077
2022-11-06T08:31:08.147Z,95080
2022-11-06T08:34:33.591Z,95072
2022-11-06T08:37:58.956Z,95077
2022-11-06T08:41:24.307Z,95069
2022-11-06T08:44:49.675Z,95059
2022-11-06T08:48:14.993Z,95064
2022-11-06T08:51:40.261Z,95062
2022-11-06T08:55:05.588Z,95059
2022-11-06T08:58:31.103Z,95064
2022-11-06T09:01:56.564Z,95047
2022-11-06T09:05:21.804Z,95050
2022-11-06T09:08:47.063Z,95040
2022-11-06T09:12:12.341Z,95035
2022-11-06T09:15:37.601Z,95036
2022-11-06T09:19:02.852Z,95041
2022-11-06T09:22:28.165Z,95039
2022-11-06T09:25:54.330Z,95042
2022-11-06T09:29:19.597Z,95037
2022-11-06T09:32:44.888Z,95033
2022-11-06T09:36:10.153Z,95031
2022-11-06T09:39:35.445Z,95015
2022-11-06T09:43:00.652Z,95019
2022-11-06T09:46:26.108Z,95020
2022-11-06T09:49:51.238Z,95017
2022-11-06T09:53:16.669Z,95019
2022-11-06T09:56:41.797Z,95018
2022-11-06T10:00:07.008Z,95016
2022-11-06T10:03:32.254Z,95008
2022-11-06T10:06:57.487Z,95003
2022-11-06T10:10:22.725Z,95014
2022-11-06T10:13:57.301Z,95007
2022-11-06T10:17:24.264Z,95000
2022-11-06T10:21:17.989Z,94999
2022-11-06T10:24:43.643Z,95009
2022-11-06T10:28:09.182Z,95005
2022-11-06T10:31:34.718Z,95000
2022-11-06T10:34:59.924Z,94999
2022-11-06T10:38:25.310Z,94995
2022-11-06T10:41:55.547Z,95001
2022-11-06T10:45:21.321Z,95003
2022-11-06T10:48:48.302Z,94989
2022-11-06T10:52:13.854Z,94981
2022-11-06T10:55:44.217Z,94974
2022-11-06T10:59:10.424Z,94974
2022-11-06T11:02:36.542Z,94958
2022-11-06T11:06:02.551Z,94960
2022-11-06T11:09:28.036Z,94958
2022-11-06T11:12:53.499Z,94954
2022-11-06T11:16:18.807Z,94942
2022-11-06T11:19:44.165Z,94935
2022-11-06T11:23:09.623Z,94923
2022-11-06T11:26:34.787Z,94921
2022-11-06T11:30:00.233Z,94912
2022-11-06T11:33:25.555Z,94896
2022-11-06T11:36:50.842Z,94897
2022-11-06T11:40:16.104Z,94894
2022-11-06T11:43:41.366Z,94898
2022-11-06T11:47:09.224Z,94889
2022-11-06T11:50:33.602Z,94885
2022-11-06T11:53:58.837Z,94872
2022-11-06T11:57:24.092Z,94868
2022-11-06T12:00:49.333Z,94868
2022-11-06T12:04:14.590Z,94861
2022-11-06T12:07:45.020Z,94863
2022-11-06T12:11:05.087Z,94854
2022-11-06T12:14:30.352Z,94856
2022-11-06T12:17:55.567Z,94850
2022-11-06T12:21:20.875Z,94852
2022-11-06T12:24:46.166Z,94851
2022-11-06T12:28:11.677Z,94850
2022-11-06T12:31:36.843Z,94838
2022-11-06T12:35:02.157Z,94824
2022-11-06T12:38:27.458Z,94827
2022-11-06T12:41:52.683Z,94827
2022-11-06T12:45:17.942Z,94832
2022-11-06T12:48:43.255Z,94822
2022-11-06T12:52:08.522Z,94818
2022-11-06T12:55:33.817Z,94812
2022-11-06T12:58:59.089Z,94811
2022-11-06T13:02:24.429Z,94804
2022-11-06T13:05:49.635Z,94796
2022-11-06T13:09:14.953Z,94797
2022-11-06T13:12:40.245Z,94791
2022-11-06T13:16:05.526Z,94791
2022-11-06T13:19:30.801Z,94781
2022-11-06T13:22:56.187Z,94777
2022-11-06T13:26:21.426Z,94771
2022-11-06T13:29:46.707Z,94763
2022-11-06T13:33:12.010Z,94764
2022-11-06T13:36:37.301Z,94758
2022-11-06T13:40:02.688Z,94748
2022-11-06T13:43:27.878Z,94738
2022-11-06T13:46:53.148Z,94742
2022-11-06T13:50:18.459Z,94741
2022-11-06T13:53:43.747Z,94734
2022-11-06T13:57:09.123Z,94722
2022-11-06T14:00:34.267Z,94717
2022-11-06T14:04:00.387Z,94709
2022-11-06T14:07:25.789Z,94711
2022-11-06T14:10:51.429Z,94726
2022-11-06T14:14:16.859Z,94713
2022-11-06T14:17:42.302Z,94712
2022-11-06T14:21:07.727Z,94705
2022-11-06T14:24:35.408Z,94698
2022-11-06T14:28:06.773Z,94688
2022-11-06T15:05:47.074Z,94669
2022-11-06T15:09:09.791Z,94671
2022-11-06T15:12:35.074Z,94678
2022-11-06T15:16:00.915Z,94667
2022-11-06T15:19:26.182Z,94659
2022-11-06T15:22:51.572Z,94653
2022-11-06T15:26:16.778Z,94646
2022-11-06T15:29:42.396Z,94643
2022-11-06T15:33:07.627Z,94644
2022-11-06T15:36:32.878Z,94637
2022-11-06T15:40:01.172Z,94632
2022-11-06T15:43:23.775Z,94633
2022-11-06T15:46:51.350Z,94631
2022-11-06T15:50:16.927Z,94624
2022-11-06T15:53:42.154Z,94618
2022-11-06T15:57:07.481Z,94624
2022-11-06T16:00:32.767Z,94614
2022-11-06T16:03:57.998Z,94612
2022-11-06T16:07:23.252Z,94611
2022-11-06T16:10:48.567Z,94620
2022-11-06T16:14:13.817Z,94610
2022-11-06T16:17:41.843Z,94618
2022-11-06T16:21:04.508Z,94613
2022-11-06T16:24:29.987Z,94610
2022-11-06T16:27:55.220Z,94599
2022-11-06T16:31:20.584Z,94593
2022-11-06T16:34:45.741Z,94586
2022-11-06T16:38:34.312Z,94589
2022-11-06T16:41:36.210Z,94591
2022-11-06T16:45:01.473Z,94588
2022-11-06T16:48:26.716Z,94588
2022-11-06T16:51:51.945Z,94587
2022-11-06T16:55:17.575Z,94581
2022-11-06T16:58:42.716Z,94577
2022-11-06T17:02:08.024Z,94577
2022-11-06T17:05:33.230Z,94570
2022-11-06T17:08:59.096Z,94567
2022-11-06T17:12:24.355Z,94573
2022-11-06T17:15:49.603Z,94574
2022-11-06T17:19:14.855Z,94569
2022-11-06T17:22:40.130Z,94578
2022-11-06T17:26:05.353Z,94585
2022-11-06T17:29:30.596Z,94585
2022-11-06T17:32:55.819Z,94588
2022-11-06T17:36:21.123Z,94588
2022-11-06T17:39:46.413Z,94589
2022-11-06T17:43:12.012Z,94591
2022-11-06T17:46:36.911Z,94581
2022-11-06T17:50:02.181Z,94590
2022-11-06T17:53:27.447Z,94595
2022-11-06T17:56:52.696Z,94610
2022-11-06T18:00:17.935Z,94609
2022-11-06T18:03:43.255Z,94611
2022-11-06T18:07:08.402Z,94612
2022-11-06T18:10:33.640Z,94604
2022-11-06T18:13:58.910Z,94605
2022-11-06T18:17:24.159Z,94599
2022-11-06T18:20:49.450Z,94605
2022-11-06T18:24:14.704Z,94606
2022-11-06T18:27:39.956Z,94601
2022-11-06T18:31:05.246Z,94605
2022-11-06T18:34:30.458Z,94604
2022-11-06T18:37:55.702Z,94607
2022-11-06T18:41:20.922Z,94603
2022-11-06T18:44:46.159Z,94603
2022-11-06T18:48:13.078Z,94601
2022-11-06T18:51:36.616Z,94599
2022-11-06T18:55:01.836Z,94591
2022-11-06T18:58:27.094Z,94600
2022-11-06T19:01:52.424Z,94583
2022-11-06T19:05:17.612Z,94578
2022-11-06T19:08:42.808Z,94589
2022-11-06T19:12:08.036Z,94592
2022-11-06T19:15:33.280Z,94599
2022-11-06T19:22:23.775Z,94599
2022-11-06T19:25:54.523Z,94596
2022-11-06T19:29:14.256Z,94590
2022-11-06T19:32:39.485Z,94589
2022-11-06T19:36:04.761Z,94588
2022-11-06T19:39:30.018Z,94593
2022-11-06T19:42:55.258Z,94586
2022-11-06T19:46:24.910Z,94592
2022-11-06T19:49:45.685Z,94586
2022-11-06T19:53:11.144Z,94590
2022-11-06T19:56:36.235Z,94586
2022-11-06T20:00:01.346Z,94582
2022-11-06T20:03:26.550Z,94586
2022-11-06T20:06:51.782Z,94582
2022-11-06T20:10:17.006Z,94588
2022-11-06T20:13:42.337Z,94568
2022-11-06T20:17:07.488Z,94578
2022-11-06T20:20:36.117Z,94577
2022-11-06T20:23:57.951Z,94576
2022-11-06T20:27:23.225Z,94570
2022-11-06T20:30:48.561Z,94565
2022-11-06T20:34:13.696Z,94566
2022-11-06T20:37:38.918Z,94556
2022-11-06T20:41:04.163Z,94549
2022-11-06T20:44:29.407Z,94541
2022-11-06T20:47:54.669Z,94544
2022-11-06T20:51:19.946Z,94537
2022-11-06T20:54:47.378Z,94537
2022-11-06T20:58:10.455Z,94522
2022-11-06T21:01:35.813Z,94515
2022-11-06T21:05:00.990Z,94507
2022-11-06T21:08:26.379Z,94495
2022-11-06T21:11:51.484Z,94491
2022-11-06T21:15:16.754Z,94500
2022-11-06T21:18:41.962Z,94515
2022-11-06T21:22:07.226Z,94532
2022-11-06T21:25:32.450Z,94535
2022-11-06T21:28:57.674Z,94535
2022-11-06T21:32:22.947Z,94544
2022-11-06T21:35:48.181Z,94544
2022-11-06T21:39:13.468Z,94543
2022-11-06T21:42:38.685Z,94546
2022-11-06T21:46:03.945Z,94544
2022-11-06T21:49:29.185Z,94562
2022-11-06T21:52:54.450Z,94563
2022-11-06T21:56:23.504Z,94558
2022-11-06T21:59:44.965Z,94565
2022-11-06T22:03:10.201Z,94561
2022-11-06T22:06:35.418Z,94555
2022-11-06T22:10:00.720Z,94539
2022-11-06T22:13:26.010Z,94540
2022-11-06T22:16:51.256Z,94555
2022-11-06T22:20:16.519Z,94558
2022-11-06T22:23:41.754Z,94534
2022-11-06T22:27:07.000Z,94518
2022-11-06T22:30:32.335Z,94511
2022-11-06T22:33:57.442Z,94513
2022-11-06T22:37:22.718Z,94515
2022-11-06T22:40:47.976Z,94520
2022-11-06T22:44:13.221Z,94519
2022-11-06T22:47:38.487Z,94517
2022-11-06T22:51:03.727Z,94495
2022-11-06T22:54:28.937Z,94486
2022-11-06T22:57:54.172Z,94482
2022-11-06T23:01:19.432Z,94482
2022-11-06T23:04:44.693Z,94470
2022-11-06T23:08:09.919Z,94470
2022-11-06T23:11:35.164Z,94468
2022-11-06T23:15:00.412Z,94477
2022-11-06T23:18:25.677Z,94487
2022-11-06T23:21:50.965Z,94489
2022-11-06T23:25:16.187Z,94496
2022-11-06T23:28:41.431Z,94514
2022-11-06T23:32:06.678Z,94534
2022-11-06T23:35:32.753Z,94539
2022-11-06T23:38:57.214Z,94537
2022-11-06T23:42:22.443Z,94539
2022-11-06T23:45:47.677Z,94526
2022-11-06T23:49:12.933Z,94548
2022-11-06T23:52:38.192Z,94547
2022-11-06T23:56:03.555Z,94557
2022-11-06T23:59:28.674Z,94561
